Lawrenceville, Virginia
Current Conditions -  °F | °C
As of 7:35 PM on Tuesday 25 Nov 2014 (Local Time) from KLVL Reporting Station
Broken Clouds Broken Clouds  
Wind Chill: 53°   Ceiling: 4000
Heat Index: 53°   Visibility: 10mi
Dew Point: 48°   Wind: 0mph
Humidity: 83%   Direction: NA
Pressure: 30.08"   Gusts: NA
Location:  36.76°N, 77.85°W
Report Text: KLVL 260035Z AUTO 00000KT 10SM BKN040 12/09 A3008 RMK AO1 T01180090
Loading
Personal Weather Stations






























Interactive Weather Map New forecast layout! Learn more

10-Day Weather Forecast

Advertisements
Track Severe Weather on mobile